Time;durP1;ratioP1;P1;durP2;ratioP2;P2;SDS_P1;SDS_P2;PMS_P1;PMS_P2;Temp;Humidity;BMP_temperature;BMP_pressure;BME280_temperature;BME280_humidity;BME280_pressure;Samples;Min_cycle;Max_cycle;Signal;HPM_P1;HPM_P2
2023/03/16 00:00:37;;;;;;;11.70;3.65;;;;;;;;;;4963991;28;20047;-65
2023/03/16 00:03:03;;;;;;;7.00;2.85;;;;;;;;;;4964173;28;20054;-65
2023/03/16 00:05:29;;;;;;;10.73;3.03;;;;;;;;;;4963775;28;20138;-65
2023/03/16 00:07:55;;;;;;;8.10;3.03;;;;;;;;;;4966154;28;20051;-65
2023/03/16 00:10:25;;;;;;;10.65;3.75;;;;;;;;;;4965214;28;20387;-65
2023/03/16 00:12:52;;;;;;;7.25;2.70;;;;;;;;;;4963233;28;20057;-65
2023/03/16 00:15:19;;;;;;;8.65;3.28;;;;;;;;;;4961999;28;20150;-65
2023/03/16 00:17:47;;;;;;;9.25;3.28;;;;;;;;;;4963026;28;20149;-65
2023/03/16 00:20:15;;;;;;;9.85;2.95;;;;;;;;;;4961874;28;20061;-65
2023/03/16 00:22:42;;;;;;;7.90;3.28;;;;;;;;;;4960938;28;20047;-65
2023/03/16 00:25:09;;;;;;;8.70;3.20;;;;;;;;;;4953269;28;20065;-65
2023/03/16 00:27:35;;;;;;;8.80;3.15;;;;;;;;;;4953734;28;20486;-65
2023/03/16 00:30:01;;;;;;;6.82;3.08;;;;;;;;;;4951652;28;20039;-65
2023/03/16 00:32:31;;;;;;;9.65;3.25;;;;;;;;;;4956454;28;20454;-65
2023/03/16 00:34:58;;;;;;;7.35;3.58;;;;;;;;;;4953222;28;20161;-65
2023/03/16 00:37:25;;;;;;;11.65;2.70;;;;;;;;;;4954013;28;20051;-65
2023/03/16 00:39:54;;;;;;;11.38;3.25;;;;;;;;;;4954298;28;20042;-66
2023/03/16 00:42:26;;;;;;;11.02;3.38;;;;;;;;;;4952576;28;20375;-66
2023/03/16 00:44:56;;;;;;;7.43;3.30;;;;;;;;;;4946181;28;20518;-66
2023/03/16 00:47:23;;;;;;;9.75;3.28;;;;;;;;;;4954596;28;20434;-65
2023/03/16 00:49:49;;;;;;;6.40;2.92;;;;;;;;;;4956469;28;20058;-66
2023/03/16 00:52:15;;;;;;;8.98;3.67;;;;;;;;;;4955167;28;20070;-65
2023/03/16 00:54:43;;;;;;;15.02;3.67;;;;;;;;;;4952042;28;20074;-65
2023/03/16 00:57:10;;;;;;;8.65;2.95;;;;;;;;;;4954155;28;20050;-65
2023/03/16 00:59:37;;;;;;;12.50;3.60;;;;;;;;;;4958678;28;20034;-65
2023/03/16 01:02:04;;;;;;;9.02;3.28;;;;;;;;;;4956767;28;20394;-65
2023/03/16 01:04:31;;;;;;;8.95;3.22;;;;;;;;;;4951859;28;20055;-65
2023/03/16 01:06:57;;;;;;;8.02;3.47;;;;;;;;;;4955705;28;20043;-65
2023/03/16 01:09:23;;;;;;;7.68;2.97;;;;;;;;;;4954373;28;20055;-65
2023/03/16 01:11:52;;;;;;;6.80;3.00;;;;;;;;;;4957018;28;20125;-65
2023/03/16 01:14:19;;;;;;;9.73;3.50;;;;;;;;;;4951339;28;20054;-66
2023/03/16 01:16:45;;;;;;;7.10;3.33;;;;;;;;;;4957228;28;20051;-65
2023/03/16 01:19:12;;;;;;;9.27;3.50;;;;;;;;;;4954212;28;20106;-66
2023/03/16 01:21:39;;;;;;;7.50;3.47;;;;;;;;;;4958557;28;21874;-65
2023/03/16 01:24:05;;;;;;;9.32;3.30;;;;;;;;;;4957073;28;20046;-65
2023/03/16 01:26:31;;;;;;;12.23;3.92;;;;;;;;;;4957145;28;20059;-65
2023/03/16 01:28:58;;;;;;;8.43;3.65;;;;;;;;;;4971728;28;20043;-65
2023/03/16 01:31:24;;;;;;;5.70;3.28;;;;;;;;;;4941479;28;20063;-65
2023/03/16 01:33:51;;;;;;;7.97;3.58;;;;;;;;;;4957121;28;20063;-65
2023/03/16 01:36:18;;;;;;;8.32;4.10;;;;;;;;;;4938060;28;20054;-65
2023/03/16 01:38:45;;;;;;;8.68;2.80;;;;;;;;;;4958850;28;20472;-65
2023/03/16 01:41:12;;;;;;;9.80;3.55;;;;;;;;;;4958933;28;20494;-65
2023/03/16 01:43:39;;;;;;;9.60;3.67;;;;;;;;;;4937425;28;20046;-65
2023/03/16 01:46:05;;;;;;;9.98;3.80;;;;;;;;;;4958397;28;20497;-65
2023/03/16 01:48:36;;;;;;;7.97;3.72;;;;;;;;;;4949529;28;20481;-65
2023/03/16 01:51:06;;;;;;;10.32;3.60;;;;;;;;;;4938013;28;20510;-65
2023/03/16 01:53:33;;;;;;;9.95;4.10;;;;;;;;;;4941321;28;20063;-65
2023/03/16 01:56:02;;;;;;;11.85;3.67;;;;;;;;;;4937431;28;20776;-65
2023/03/16 01:58:29;;;;;;;7.28;3.40;;;;;;;;;;4962928;28;20035;-65
2023/03/16 02:00:57;;;;;;;8.88;3.47;;;;;;;;;;4963524;28;20034;-65
2023/03/16 02:03:23;;;;;;;8.88;3.75;;;;;;;;;;4965880;28;20517;-65
2023/03/16 02:05:53;;;;;;;7.35;3.70;;;;;;;;;;4947097;28;20549;-65
2023/03/16 02:08:21;;;;;;;7.88;3.28;;;;;;;;;;4948352;28;20072;-65
2023/03/16 02:10:48;;;;;;;8.70;3.40;;;;;;;;;;4966172;28;20471;-65
2023/03/16 02:13:14;;;;;;;9.15;3.70;;;;;;;;;;4966430;28;20078;-65
2023/03/16 02:15:40;;;;;;;7.93;3.72;;;;;;;;;;4966496;28;20050;-65
2023/03/16 02:18:07;;;;;;;5.53;3.42;;;;;;;;;;4966712;28;20137;-65
2023/03/16 02:20:39;;;;;;;8.20;3.50;;;;;;;;;;4967396;28;20046;-65
2023/03/16 02:23:06;;;;;;;7.70;3.55;;;;;;;;;;4963993;28;20561;-64
2023/03/16 02:25:42;;;;;;;7.85;3.47;;;;;;;;;;4964134;28;20390;-64
2023/03/16 02:28:14;;;;;;;9.90;4.00;;;;;;;;;;4944365;28;20137;-64
2023/03/16 02:30:40;;;;;;;8.27;3.42;;;;;;;;;;4922676;28;20059;-64
2023/03/16 02:33:06;;;;;;;8.88;3.55;;;;;;;;;;4921421;29;20146;-65
2023/03/16 02:35:33;;;;;;;6.93;3.33;;;;;;;;;;4937800;28;20084;-65
2023/03/16 02:38:00;;;;;;;8.27;3.15;;;;;;;;;;4938009;28;20052;-64
2023/03/16 02:40:29;;;;;;;10.82;4.00;;;;;;;;;;4917137;28;20514;-65
2023/03/16 02:43:03;;;;;;;7.30;4.00;;;;;;;;;;4938822;28;20395;-65
2023/03/16 02:45:32;;;;;;;7.95;3.50;;;;;;;;;;4932009;28;20046;-65
2023/03/16 02:48:02;;;;;;;9.10;4.45;;;;;;;;;;4938425;29;20070;-65
2023/03/16 02:50:28;;;;;;;7.72;3.30;;;;;;;;;;4940069;28;20517;-65
2023/03/16 02:52:54;;;;;;;10.05;4.28;;;;;;;;;;4938626;28;20131;-65
2023/03/16 02:55:21;;;;;;;7.28;3.55;;;;;;;;;;4940576;28;20047;-65
2023/03/16 02:57:47;;;;;;;7.80;3.25;;;;;;;;;;4943286;28;20455;-65
2023/03/16 03:00:17;;;;;;;9.23;3.38;;;;;;;;;;4936760;28;20139;-65
2023/03/16 03:02:43;;;;;;;11.23;4.43;;;;;;;;;;4935572;28;20131;-65
2023/03/16 03:05:10;;;;;;;8.18;4.10;;;;;;;;;;4931343;28;20051;-65
2023/03/16 03:07:36;;;;;;;7.18;3.97;;;;;;;;;;4938284;28;20054;-65
2023/03/16 03:10:04;;;;;;;6.85;3.55;;;;;;;;;;4937119;28;20074;-65
2023/03/16 03:12:31;;;;;;;7.93;3.67;;;;;;;;;;4935987;28;20055;-65
2023/03/16 03:14:57;;;;;;;7.35;3.72;;;;;;;;;;4939420;28;20183;-65
2023/03/16 03:17:30;;;;;;;10.23;3.53;;;;;;;;;;4937946;28;20415;-65
2023/03/16 03:19:57;;;;;;;7.38;3.83;;;;;;;;;;4921552;29;20134;-65
2023/03/16 03:22:25;;;;;;;8.70;4.20;;;;;;;;;;4918084;28;20065;-65
2023/03/16 03:24:51;;;;;;;5.97;3.33;;;;;;;;;;4939918;28;20414;-65
2023/03/16 03:27:18;;;;;;;8.65;3.60;;;;;;;;;;4920472;28;20051;-65
2023/03/16 03:29:44;;;;;;;8.48;3.60;;;;;;;;;;4943918;28;20117;-65
2023/03/16 03:32:10;;;;;;;7.93;4.10;;;;;;;;;;4957295;28;20057;-65
2023/03/16 03:34:37;;;;;;;7.82;3.67;;;;;;;;;;4938672;28;20093;-65
2023/03/16 03:37:03;;;;;;;6.65;3.70;;;;;;;;;;4955670;28;20113;-65
2023/03/16 03:39:29;;;;;;;7.25;3.65;;;;;;;;;;4957711;28;20046;-65
2023/03/16 03:41:55;;;;;;;8.93;4.95;;;;;;;;;;4939568;28;20130;-65
2023/03/16 03:44:22;;;;;;;7.93;3.85;;;;;;;;;;4956840;28;20474;-65
2023/03/16 03:46:48;;;;;;;11.48;4.30;;;;;;;;;;4955419;28;20058;-65
2023/03/16 03:49:15;;;;;;;7.97;4.07;;;;;;;;;;4936834;28;20061;-65
2023/03/16 03:51:41;;;;;;;9.80;3.90;;;;;;;;;;4939969;28;20465;-65
2023/03/16 03:54:08;;;;;;;10.23;4.38;;;;;;;;;;4957192;28;20177;-65
2023/03/16 03:56:34;;;;;;;9.38;4.20;;;;;;;;;;4957333;28;20507;-65
2023/03/16 03:59:00;;;;;;;10.23;4.57;;;;;;;;;;4964093;28;20089;-65
2023/03/16 04:01:26;;;;;;;9.07;4.30;;;;;;;;;;4963920;28;20051;-65
2023/03/16 04:03:52;;;;;;;9.95;5.32;;;;;;;;;;4962926;28;20042;-65
2023/03/16 04:06:18;;;;;;;8.13;4.20;;;;;;;;;;4964991;28;20069;-65
2023/03/16 04:08:45;;;;;;;10.15;4.50;;;;;;;;;;4964181;28;20035;-65
2023/03/16 04:11:11;;;;;;;8.80;4.65;;;;;;;;;;4964237;28;20050;-65
2023/03/16 04:13:37;;;;;;;12.55;4.13;;;;;;;;;;4965023;28;20069;-65
2023/03/16 04:16:03;;;;;;;9.57;4.25;;;;;;;;;;4963855;28;20162;-65
2023/03/16 04:18:37;;;;;;;7.55;4.85;;;;;;;;;;4964138;28;20193;-65
2023/03/16 04:21:05;;;;;;;7.65;4.43;;;;;;;;;;4946850;28;20086;-65
2023/03/16 04:23:33;;;;;;;8.52;3.80;;;;;;;;;;4963908;28;20039;-65
2023/03/16 04:25:59;;;;;;;7.70;4.28;;;;;;;;;;4963933;28;20130;-64
2023/03/16 04:28:26;;;;;;;8.25;4.28;;;;;;;;;;4961027;28;20481;-65
2023/03/16 04:30:53;;;;;;;13.35;4.93;;;;;;;;;;4953688;28;20059;-65
2023/03/16 04:33:20;;;;;;;10.95;4.88;;;;;;;;;;4930099;28;20089;-65
2023/03/16 04:35:47;;;;;;;8.43;4.63;;;;;;;;;;4955100;28;20068;-65
2023/03/16 04:38:13;;;;;;;9.88;4.65;;;;;;;;;;4937230;28;20426;-65
2023/03/16 04:40:39;;;;;;;9.02;4.32;;;;;;;;;;4955326;28;20474;-65
2023/03/16 04:43:06;;;;;;;10.63;4.85;;;;;;;;;;4935166;28;20047;-65
2023/03/16 04:45:32;;;;;;;10.55;5.03;;;;;;;;;;4954293;28;20481;-65
2023/03/16 04:47:58;;;;;;;13.88;4.78;;;;;;;;;;4937826;28;20130;-65
2023/03/16 04:50:24;;;;;;;10.35;4.82;;;;;;;;;;4955073;28;20145;-65
2023/03/16 04:52:50;;;;;;;9.35;5.30;;;;;;;;;;4955358;28;20122;-65
2023/03/16 04:55:17;;;;;;;9.15;5.65;;;;;;;;;;4955932;28;20047;-65
2023/03/16 04:57:43;;;;;;;13.02;5.63;;;;;;;;;;4959179;28;20387;-65
2023/03/16 05:00:13;;;;;;;9.75;5.50;;;;;;;;;;4958347;28;20120;-65
2023/03/16 05:02:40;;;;;;;10.68;5.80;;;;;;;;;;4941193;28;20043;-65
2023/03/16 05:05:06;;;;;;;10.27;5.57;;;;;;;;;;4956723;28;20058;-65
2023/03/16 05:07:32;;;;;;;10.52;5.88;;;;;;;;;;4956018;28;20042;-66
2023/03/16 05:09:59;;;;;;;11.57;5.82;;;;;;;;;;4955788;28;20375;-66
2023/03/16 05:12:25;;;;;;;13.05;6.20;;;;;;;;;;4958395;28;20067;-65
2023/03/16 05:14:51;;;;;;;11.73;6.30;;;;;;;;;;4940189;28;20051;-65
2023/03/16 05:17:17;;;;;;;12.30;5.55;;;;;;;;;;4958360;28;20061;-65
2023/03/16 05:19:44;;;;;;;14.48;6.60;;;;;;;;;;4959433;28;20122;-66
2023/03/16 05:22:10;;;;;;;13.02;7.30;;;;;;;;;;4957250;28;20058;-65
2023/03/16 05:24:36;;;;;;;12.50;6.50;;;;;;;;;;4957930;28;20045;-65
2023/03/16 05:27:02;;;;;;;9.65;7.13;;;;;;;;;;4959895;28;20500;-65
2023/03/16 05:29:30;;;;;;;10.50;6.63;;;;;;;;;;4959918;28;20486;-65
2023/03/16 05:31:57;;;;;;;11.07;6.32;;;;;;;;;;4960398;28;21184;-65
2023/03/16 05:34:23;;;;;;;13.35;6.57;;;;;;;;;;4957969;28;20065;-65
2023/03/16 05:36:49;;;;;;;14.38;7.55;;;;;;;;;;4956056;28;20041;-64
2023/03/16 05:39:15;;;;;;;14.27;7.10;;;;;;;;;;4957128;28;20073;-65
2023/03/16 05:41:42;;;;;;;12.35;7.05;;;;;;;;;;4938381;28;20102;-65
2023/03/16 05:44:09;;;;;;;15.27;7.38;;;;;;;;;;4958109;28;20383;-65
2023/03/16 05:46:35;;;;;;;12.82;7.95;;;;;;;;;;4957766;28;20045;-64
2023/03/16 05:49:02;;;;;;;13.63;8.05;;;;;;;;;;4940625;28;20506;-65
2023/03/16 05:51:28;;;;;;;12.25;7.43;;;;;;;;;;4965478;28;20096;-64
2023/03/16 05:53:55;;;;;;;12.73;7.43;;;;;;;;;;4962984;28;20050;-65
2023/03/16 05:56:23;;;;;;;17.13;8.18;;;;;;;;;;4959243;28;20073;-64
2023/03/16 05:58:50;;;;;;;14.32;6.85;;;;;;;;;;4960721;28;20050;-64
2023/03/16 06:01:16;;;;;;;12.68;7.97;;;;;;;;;;4961880;28;20046;-64
2023/03/16 06:03:43;;;;;;;12.55;7.88;;;;;;;;;;4960763;28;20093;-64
2023/03/16 06:06:09;;;;;;;12.32;7.25;;;;;;;;;;4960286;28;20051;-64
2023/03/16 06:08:36;;;;;;;16.20;8.20;;;;;;;;;;4961353;28;20106;-65
2023/03/16 06:11:03;;;;;;;12.68;7.72;;;;;;;;;;4933508;28;20062;-65
2023/03/16 06:13:29;;;;;;;18.27;9.02;;;;;;;;;;4963817;28;20040;-65
2023/03/16 06:15:55;;;;;;;15.98;8.45;;;;;;;;;;4962682;28;20058;-64
2023/03/16 06:18:21;;;;;;;17.23;7.85;;;;;;;;;;4962552;28;20043;-64
2023/03/16 06:20:48;;;;;;;14.40;8.07;;;;;;;;;;4944407;28;20057;-64
2023/03/16 06:23:14;;;;;;;12.73;7.30;;;;;;;;;;4963759;28;20068;-64
2023/03/16 06:25:40;;;;;;;15.18;7.68;;;;;;;;;;4960674;28;20179;-64
2023/03/16 06:28:07;;;;;;;17.63;7.40;;;;;;;;;;4946184;28;20438;-64
2023/03/16 06:30:33;;;;;;;11.93;7.10;;;;;;;;;;4951854;28;20457;-64
2023/03/16 06:33:00;;;;;;;16.38;8.38;;;;;;;;;;4961236;28;20513;-64
2023/03/16 06:35:27;;;;;;;27.60;8.68;;;;;;;;;;4971025;28;20051;-64
2023/03/16 06:37:53;;;;;;;16.38;8.60;;;;;;;;;;4968033;28;21163;-64
2023/03/16 06:40:19;;;;;;;15.07;7.53;;;;;;;;;;4971453;28;20046;-64
2023/03/16 06:42:45;;;;;;;12.63;8.05;;;;;;;;;;4968706;28;20046;-64
2023/03/16 06:45:11;;;;;;;15.63;7.97;;;;;;;;;;4968544;28;20058;-65
2023/03/16 06:47:38;;;;;;;11.63;7.50;;;;;;;;;;4969015;28;20129;-65
2023/03/16 06:50:04;;;;;;;15.35;7.47;;;;;;;;;;4969893;28;20038;-65
2023/03/16 06:52:30;;;;;;;13.90;7.63;;;;;;;;;;4969363;28;20038;-65
2023/03/16 06:54:57;;;;;;;15.48;8.70;;;;;;;;;;4970970;28;20478;-65
2023/03/16 06:57:23;;;;;;;11.85;7.28;;;;;;;;;;4971228;28;20039;-65
2023/03/16 06:59:50;;;;;;;17.83;7.57;;;;;;;;;;4970279;28;20379;-65
2023/03/16 07:02:16;;;;;;;15.25;7.85;;;;;;;;;;4971884;28;20035;-65
2023/03/16 07:04:43;;;;;;;12.38;7.55;;;;;;;;;;4969420;28;20443;-65
2023/03/16 07:07:10;;;;;;;21.98;8.35;;;;;;;;;;4969875;28;20130;-65
2023/03/16 07:09:37;;;;;;;12.73;7.25;;;;;;;;;;4967910;28;20042;-65
2023/03/16 07:12:03;;;;;;;13.35;6.97;;;;;;;;;;4968657;28;20038;-65
2023/03/16 07:14:30;;;;;;;12.43;7.22;;;;;;;;;;4967887;28;20061;-65
2023/03/16 07:16:56;;;;;;;15.70;7.78;;;;;;;;;;4969122;28;20046;-65
2023/03/16 07:19:22;;;;;;;14.30;7.57;;;;;;;;;;4970589;28;20070;-65
2023/03/16 07:21:50;;;;;;;14.27;7.07;;;;;;;;;;4969452;28;20075;-65
2023/03/16 07:24:16;;;;;;;14.75;7.50;;;;;;;;;;4970551;28;20180;-65
2023/03/16 07:26:42;;;;;;;13.10;7.38;;;;;;;;;;4969106;28;20105;-65
2023/03/16 07:29:10;;;;;;;12.35;7.53;;;;;;;;;;4967636;28;20081;-65
2023/03/16 07:31:36;;;;;;;15.57;8.00;;;;;;;;;;4953494;28;20470;-65
2023/03/16 07:34:03;;;;;;;14.98;7.95;;;;;;;;;;4971460;28;20047;-65
2023/03/16 07:36:30;;;;;;;11.55;7.70;;;;;;;;;;4952067;28;20603;-65
2023/03/16 07:38:56;;;;;;;13.65;7.28;;;;;;;;;;4950606;28;20080;-65
2023/03/16 07:41:23;;;;;;;14.95;7.20;;;;;;;;;;4974169;28;20043;-65
2023/03/16 07:43:49;;;;;;;20.65;9.85;;;;;;;;;;4951621;28;20423;-65
2023/03/16 07:46:15;;;;;;;14.25;8.00;;;;;;;;;;4953206;28;20093;-65
2023/03/16 07:48:42;;;;;;;12.23;7.13;;;;;;;;;;4968375;28;20516;-65
2023/03/16 07:51:09;;;;;;;12.55;8.05;;;;;;;;;;4968624;28;20118;-65
2023/03/16 07:53:35;;;;;;;16.17;7.70;;;;;;;;;;4968825;28;20034;-65
2023/03/16 07:56:01;;;;;;;14.32;8.32;;;;;;;;;;4950947;28;20050;-65
2023/03/16 07:58:27;;;;;;;14.45;7.32;;;;;;;;;;4969612;28;20482;-65
2023/03/16 08:00:57;;;;;;;14.40;8.00;;;;;;;;;;4947262;28;20082;-65
2023/03/16 08:03:24;;;;;;;15.93;8.15;;;;;;;;;;4950568;28;20055;-65
2023/03/16 08:05:50;;;;;;;17.00;7.55;;;;;;;;;;4969989;28;20047;-65
2023/03/16 08:08:17;;;;;;;13.15;7.45;;;;;;;;;;4969227;28;20055;-65
2023/03/16 08:10:43;;;;;;;14.35;8.43;;;;;;;;;;4950308;28;20106;-65
2023/03/16 08:13:09;;;;;;;11.27;7.55;;;;;;;;;;4948158;28;20138;-65
2023/03/16 08:15:35;;;;;;;14.20;7.55;;;;;;;;;;4968103;28;20043;-65
2023/03/16 08:18:01;;;;;;;14.77;7.85;;;;;;;;;;4967640;28;20042;-65
2023/03/16 08:20:28;;;;;;;12.93;7.38;;;;;;;;;;4966963;28;20046;-65
2023/03/16 08:22:54;;;;;;;13.35;7.20;;;;;;;;;;4945342;28;20047;-65
2023/03/16 08:25:21;;;;;;;16.13;7.57;;;;;;;;;;4963665;28;20515;-65
2023/03/16 08:27:47;;;;;;;10.50;6.93;;;;;;;;;;4947377;28;20077;-65
2023/03/16 08:30:15;;;;;;;17.35;8.70;;;;;;;;;;4934789;28;20076;-65
2023/03/16 08:32:41;;;;;;;12.32;7.20;;;;;;;;;;4948119;28;20043;-65
2023/03/16 08:35:09;;;;;;;17.10;7.50;;;;;;;;;;4916526;29;20150;-65
2023/03/16 08:37:36;;;;;;;15.30;8.40;;;;;;;;;;4946497;28;20193;-65
2023/03/16 08:40:05;;;;;;;20.63;8.30;;;;;;;;;;4933091;29;20046;-65
2023/03/16 08:42:31;;;;;;;14.80;7.82;;;;;;;;;;4930334;29;20047;-65
2023/03/16 08:44:59;;;;;;;13.00;7.47;;;;;;;;;;4931484;28;20035;-65
2023/03/16 08:47:25;;;;;;;12.65;7.15;;;;;;;;;;4931350;29;20051;-65
2023/03/16 08:49:52;;;;;;;12.70;7.85;;;;;;;;;;4948772;28;20139;-64
2023/03/16 08:52:18;;;;;;;15.48;8.30;;;;;;;;;;4949192;28;20067;-65
2023/03/16 08:54:44;;;;;;;13.98;8.40;;;;;;;;;;4930960;29;20058;-64
2023/03/16 08:57:11;;;;;;;16.77;9.23;;;;;;;;;;4948743;28;20047;-64
2023/03/16 08:59:37;;;;;;;14.63;8.40;;;;;;;;;;4949029;28;20096;-64
2023/03/16 09:02:03;;;;;;;17.85;8.52;;;;;;;;;;4948053;28;20042;-65
2023/03/16 09:04:29;;;;;;;14.10;8.10;;;;;;;;;;4932104;29;20048;-64
2023/03/16 09:06:56;;;;;;;16.05;8.45;;;;;;;;;;4947395;28;20122;-64
2023/03/16 09:09:22;;;;;;;13.65;7.55;;;;;;;;;;4948834;28;20057;-64
2023/03/16 09:11:49;;;;;;;16.90;8.63;;;;;;;;;;4949535;28;20042;-64
2023/03/16 09:14:15;;;;;;;13.18;7.50;;;;;;;;;;4948086;28;20062;-64
2023/03/16 09:16:43;;;;;;;11.20;7.28;;;;;;;;;;4948990;28;20110;-64
2023/03/16 09:19:10;;;;;;;16.60;8.43;;;;;;;;;;4931199;29;20051;-64
2023/03/16 09:21:37;;;;;;;11.27;6.80;;;;;;;;;;4926875;29;20087;-64
2023/03/16 09:24:03;;;;;;;12.38;7.25;;;;;;;;;;4926746;28;20098;-65
2023/03/16 09:26:29;;;;;;;13.40;7.03;;;;;;;;;;4945173;28;20574;-64
2023/03/16 09:28:55;;;;;;;17.27;7.55;;;;;;;;;;4944287;28;20426;-63
2023/03/16 09:31:21;;;;;;;12.27;7.05;;;;;;;;;;4964959;28;20065;-65
2023/03/16 09:33:48;;;;;;;13.32;6.90;;;;;;;;;;4963578;28;20432;-64
2023/03/16 09:36:14;;;;;;;17.05;7.35;;;;;;;;;;4964975;28;20498;-65
2023/03/16 09:38:42;;;;;;;13.32;7.90;;;;;;;;;;4967157;28;20505;-65
2023/03/16 09:41:27;;;;;;;16.75;8.23;;;;;;;;;;4965716;28;20130;-65
2023/03/16 09:43:59;;;;;;;15.52;7.30;;;;;;;;;;4955235;28;20081;-65
2023/03/16 09:46:28;;;;;;;13.32;7.07;;;;;;;;;;4972697;28;20412;-65
2023/03/16 09:48:55;;;;;;;13.23;7.95;;;;;;;;;;4968322;28;20039;-65
2023/03/16 09:51:27;;;;;;;11.57;6.57;;;;;;;;;;4969106;28;20039;-64
2023/03/16 09:53:58;;;;;;;12.15;6.50;;;;;;;;;;4970490;28;20058;-65
2023/03/16 09:56:29;;;;;;;18.08;7.55;;;;;;;;;;4971034;28;20082;-64
2023/03/16 09:58:55;;;;;;;17.88;7.15;;;;;;;;;;4971823;28;20340;-64
2023/03/16 10:01:33;;;;;;;10.75;5.80;;;;;;;;;;4954011;28;20494;-64
2023/03/16 10:04:18;;;;;;;24.92;6.72;;;;;;;;;;4971049;28;20049;-64
2023/03/16 10:06:55;;;;;;;14.70;6.43;;;;;;;;;;4953722;28;20146;-64
2023/03/16 10:09:27;;;;;;;17.33;6.70;;;;;;;;;;4952520;28;20050;-64
2023/03/16 10:11:54;;;;;;;13.57;7.28;;;;;;;;;;4971076;28;20061;-64
2023/03/16 10:14:21;;;;;;;10.77;5.60;;;;;;;;;;4951760;28;20039;-65
2023/03/16 10:16:51;;;;;;;15.02;6.32;;;;;;;;;;4966984;28;20039;-65
2023/03/16 10:19:19;;;;;;;13.32;5.18;;;;;;;;;;4950082;28;20072;-65
2023/03/16 10:21:47;;;;;;;10.00;5.88;;;;;;;;;;4968448;28;20138;-65
2023/03/16 10:24:17;;;;;;;8.70;5.07;;;;;;;;;;4966740;28;21225;-65
2023/03/16 10:26:54;;;;;;;16.73;6.80;;;;;;;;;;4965452;28;20043;-65
2023/03/16 10:29:20;;;;;;;13.85;6.07;;;;;;;;;;4966178;28;20055;-65
2023/03/16 10:31:47;;;;;;;11.13;5.22;;;;;;;;;;4948062;28;20049;-65
2023/03/16 10:34:14;;;;;;;12.68;5.82;;;;;;;;;;4966741;28;20121;-65
2023/03/16 10:36:43;;;;;;;10.27;5.60;;;;;;;;;;4967141;28;20046;-65
2023/03/16 10:39:11;;;;;;;14.02;5.72;;;;;;;;;;4966059;28;20078;-65
2023/03/16 10:41:39;;;;;;;9.55;5.88;;;;;;;;;;4948900;28;20059;-65
2023/03/16 10:44:11;;;;;;;11.85;5.70;;;;;;;;;;4966633;28;20034;-65
2023/03/16 10:46:47;;;;;;;13.57;6.15;;;;;;;;;;4964815;28;20051;-66
2023/03/16 10:49:20;;;;;;;11.32;6.13;;;;;;;;;;4967212;28;20269;-66
2023/03/16 10:51:46;;;;;;;10.60;4.80;;;;;;;;;;4948996;28;20078;-66
2023/03/16 10:54:15;;;;;;;13.73;6.60;;;;;;;;;;4966174;28;20102;-66
2023/03/16 10:56:41;;;;;;;7.93;5.25;;;;;;;;;;4964444;28;20061;-66
2023/03/16 10:59:16;;;;;;;11.70;5.65;;;;;;;;;;4966814;28;20151;-66
2023/03/16 11:01:44;;;;;;;11.23;4.75;;;;;;;;;;4966379;28;20042;-66
2023/03/16 11:04:14;;;;;;;7.97;4.95;;;;;;;;;;4949313;28;20042;-66
2023/03/16 11:06:46;;;;;;;9.07;4.53;;;;;;;;;;4964012;28;20501;-66
2023/03/16 11:09:15;;;;;;;13.38;5.05;;;;;;;;;;4966049;28;20497;-66
2023/03/16 11:11:47;;;;;;;10.18;4.47;;;;;;;;;;4951045;28;20046;-66
2023/03/16 11:14:14;;;;;;;11.95;4.82;;;;;;;;;;4966476;28;20217;-66
2023/03/16 11:16:53;;;;;;;9.15;4.43;;;;;;;;;;4966840;28;20074;-66
2023/03/16 11:19:23;;;;;;;8.18;4.53;;;;;;;;;;4965395;28;20062;-66
2023/03/16 11:21:53;;;;;;;11.68;4.53;;;;;;;;;;4949794;28;20061;-66
2023/03/16 11:24:25;;;;;;;11.75;4.00;;;;;;;;;;4967126;28;20475;-66
2023/03/16 11:26:54;;;;;;;9.43;5.28;;;;;;;;;;4966701;28;20162;-66
2023/03/16 11:29:32;;;;;;;11.25;4.32;;;;;;;;;;4946657;28;20051;-66
2023/03/16 11:32:04;;;;;;;8.25;4.78;;;;;;;;;;4947819;28;20075;-66
2023/03/16 11:34:31;;;;;;;9.05;4.68;;;;;;;;;;4947929;28;20047;-67
2023/03/16 11:36:59;;;;;;;7.25;3.80;;;;;;;;;;4929797;29;20178;-66
2023/03/16 11:39:39;;;;;;;8.93;4.28;;;;;;;;;;4927104;29;20458;-66
2023/03/16 11:42:15;;;;;;;8.50;4.28;;;;;;;;;;4946629;28;20081;-66
2023/03/16 11:45:01;;;;;;;7.65;4.80;;;;;;;;;;4948433;28;20170;-66
2023/03/16 11:47:28;;;;;;;11.80;4.95;;;;;;;;;;4947821;28;20055;-66
2023/03/16 11:50:00;;;;;;;9.40;4.80;;;;;;;;;;4931548;28;20083;-66
2023/03/16 11:52:35;;;;;;;10.85;5.25;;;;;;;;;;4947335;28;20482;-66
2023/03/16 11:55:14;;;;;;;10.05;4.63;;;;;;;;;;4947321;28;20044;-66
2023/03/16 11:57:41;;;;;;;8.40;4.35;;;;;;;;;;4943415;28;20051;-66
2023/03/16 12:00:13;;;;;;;9.73;4.30;;;;;;;;;;4944139;28;20079;-66
2023/03/16 12:02:49;;;;;;;10.43;5.15;;;;;;;;;;4944245;28;20454;-66
2023/03/16 12:05:22;;;;;;;9.10;4.57;;;;;;;;;;4927344;28;20051;-66
2023/03/16 12:08:03;;;;;;;10.70;4.45;;;;;;;;;;4930224;28;20118;-65
2023/03/16 12:10:35;;;;;;;14.45;5.93;;;;;;;;;;4931636;28;20099;-66
2023/03/16 12:13:01;;;;;;;9.27;4.25;;;;;;;;;;4949731;28;20467;-66
2023/03/16 12:15:32;;;;;;;7.50;4.30;;;;;;;;;;4949867;28;20058;-66
2023/03/16 12:18:02;;;;;;;9.60;4.40;;;;;;;;;;4946700;28;20078;-66
2023/03/16 12:20:32;;;;;;;7.85;4.18;;;;;;;;;;4948771;28;20133;-66
2023/03/16 12:23:10;;;;;;;11.07;4.40;;;;;;;;;;4931974;28;20503;-66
2023/03/16 12:25:38;;;;;;;8.57;4.03;;;;;;;;;;4949855;28;20495;-66
2023/03/16 12:28:10;;;;;;;11.73;4.85;;;;;;;;;;4933278;29;20435;-66
2023/03/16 12:30:42;;;;;;;8.15;4.90;;;;;;;;;;4963350;28;20082;-66
2023/03/16 12:33:18;;;;;;;10.30;5.13;;;;;;;;;;4969565;28;20045;-66
2023/03/16 12:35:48;;;;;;;9.63;4.13;;;;;;;;;;4951484;28;20054;-66
2023/03/16 12:38:19;;;;;;;9.43;4.47;;;;;;;;;;4968210;28;20046;-66
2023/03/16 12:40:59;;;;;;;9.43;4.82;;;;;;;;;;4951652;28;20125;-66
2023/03/16 12:43:33;;;;;;;10.38;4.80;;;;;;;;;;4965478;28;20050;-65
2023/03/16 12:46:01;;;;;;;9.23;4.32;;;;;;;;;;4964155;28;20046;-66
2023/03/16 12:48:29;;;;;;;8.15;4.13;;;;;;;;;;4965081;28;20043;-66
2023/03/16 12:50:58;;;;;;;9.50;4.70;;;;;;;;;;4964374;28;20494;-66
2023/03/16 12:53:25;;;;;;;13.02;4.80;;;;;;;;;;4948304;28;20061;-66
2023/03/16 12:55:52;;;;;;;8.95;4.45;;;;;;;;;;4947502;28;20121;-66
2023/03/16 12:58:18;;;;;;;7.95;4.43;;;;;;;;;;4964363;28;20039;-66
2023/03/16 13:00:55;;;;;;;11.93;4.65;;;;;;;;;;4965390;28;20042;-66
2023/03/16 13:03:23;;;;;;;10.48;4.15;;;;;;;;;;4966258;28;20101;-66
2023/03/16 13:05:50;;;;;;;8.07;4.55;;;;;;;;;;4964238;28;20039;-66
2023/03/16 13:08:17;;;;;;;9.90;4.78;;;;;;;;;;4965317;28;20039;-66
2023/03/16 13:11:01;;;;;;;8.75;4.50;;;;;;;;;;4965912;28;20162;-66
2023/03/16 13:13:27;;;;;;;9.87;4.60;;;;;;;;;;4961167;28;20483;-80
2023/03/16 13:16:05;;;;;;;7.53;4.20;;;;;;;;;;4967204;28;20313;-66
2023/03/16 13:18:34;;;;;;;8.52;3.70;;;;;;;;;;4968636;28;20506;-66
2023/03/16 13:21:01;;;;;;;10.18;4.60;;;;;;;;;;4966658;28;20097;-66
2023/03/16 13:23:45;;;;;;;8.88;4.28;;;;;;;;;;4965896;28;20094;-66
2023/03/16 13:26:13;;;;;;;8.45;4.15;;;;;;;;;;4953306;28;20047;-66
2023/03/16 13:28:40;;;;;;;9.07;4.22;;;;;;;;;;4970813;28;20094;-66
2023/03/16 13:31:19;;;;;;;12.60;4.53;;;;;;;;;;4970665;28;20080;-66
2023/03/16 13:33:46;;;;;;;8.15;4.38;;;;;;;;;;4971417;28;20146;-66
2023/03/16 13:36:13;;;;;;;8.13;3.88;;;;;;;;;;4970728;28;20046;-66
2023/03/16 13:38:39;;;;;;;8.35;4.22;;;;;;;;;;4968875;28;20411;-66
2023/03/16 13:41:10;;;;;;;8.23;4.13;;;;;;;;;;4967260;28;20359;-65
2023/03/16 13:43:39;;;;;;;9.38;4.07;;;;;;;;;;4968026;28;20165;-65
2023/03/16 13:46:15;;;;;;;9.18;4.70;;;;;;;;;;4968358;28;20043;-65
2023/03/16 13:48:42;;;;;;;12.27;4.80;;;;;;;;;;4966364;28;20042;-65
2023/03/16 13:51:16;;;;;;;10.07;4.10;;;;;;;;;;4951289;28;20546;-65
2023/03/16 13:53:43;;;;;;;7.88;4.13;;;;;;;;;;4968150;28;20047;-65
2023/03/16 13:56:13;;;;;;;8.05;4.18;;;;;;;;;;4966391;28;20170;-65
2023/03/16 13:58:39;;;;;;;9.50;4.35;;;;;;;;;;4969241;28;20050;-66
2023/03/16 14:01:13;;;;;;;8.80;4.22;;;;;;;;;;4969417;28;20058;-65
2023/03/16 14:03:44;;;;;;;8.50;4.43;;;;;;;;;;4968000;28;20490;-65
2023/03/16 14:06:20;;;;;;;12.15;4.63;;;;;;;;;;4971204;28;20130;-65
2023/03/16 14:08:49;;;;;;;7.60;4.38;;;;;;;;;;4966245;28;20501;-64
2023/03/16 14:11:15;;;;;;;11.77;5.25;;;;;;;;;;4945862;28;20394;-64
2023/03/16 14:13:41;;;;;;;8.20;3.97;;;;;;;;;;4947638;28;20137;-64
2023/03/16 14:16:13;;;;;;;9.88;4.40;;;;;;;;;;4932234;28;20085;-64
2023/03/16 14:18:42;;;;;;;11.75;4.88;;;;;;;;;;4962509;28;20050;-64
2023/03/16 14:21:10;;;;;;;10.82;4.60;;;;;;;;;;4963808;28;20142;-65
2023/03/16 14:23:38;;;;;;;9.35;4.25;;;;;;;;;;4967366;28;20497;-64
2023/03/16 14:26:06;;;;;;;9.57;4.78;;;;;;;;;;4963968;28;20043;-64
2023/03/16 14:28:33;;;;;;;10.27;4.60;;;;;;;;;;4965695;28;20089;-64
2023/03/16 14:31:05;;;;;;;9.55;4.55;;;;;;;;;;4928203;28;20511;-64
2023/03/16 14:33:32;;;;;;;8.57;4.38;;;;;;;;;;4947445;28;20062;-64
2023/03/16 14:35:59;;;;;;;8.15;4.57;;;;;;;;;;4930234;29;20154;-64
2023/03/16 14:38:26;;;;;;;9.10;4.90;;;;;;;;;;4930184;29;20050;-64
2023/03/16 14:40:54;;;;;;;8.43;4.32;;;;;;;;;;4943139;28;20525;-65